sensor_id;sensor_type;location;lat;lon;timestamp;P1;durP1;ratioP1;P2;durP2;ratioP2
8895;SDS011;4484;48.928;10.066;2023-05-07T00:00:35;2.50;;;1.90;;
8895;SDS011;4484;48.928;10.066;2023-05-07T00:03:02;2.70;;;2.00;;
8895;SDS011;4484;48.928;10.066;2023-05-07T00:05:29;1.60;;;1.50;;
8895;SDS011;4484;48.928;10.066;2023-05-07T00:07:56;1.87;;;1.77;;
8895;SDS011;4484;48.928;10.066;2023-05-07T00:10:25;1.67;;;1.57;;
8895;SDS011;4484;48.928;10.066;2023-05-07T00:12:52;2.03;;;1.77;;
8895;SDS011;4484;48.928;10.066;2023-05-07T00:15:19;1.93;;;1.60;;
8895;SDS011;4484;48.928;10.066;2023-05-07T00:17:46;2.20;;;2.00;;
8895;SDS011;4484;48.928;10.066;2023-05-07T00:20:13;2.20;;;1.70;;
8895;SDS011;4484;48.928;10.066;2023-05-07T00:22:39;2.60;;;2.07;;
8895;SDS011;4484;48.928;10.066;2023-05-07T00:25:06;2.60;;;2.07;;
8895;SDS011;4484;48.928;10.066;2023-05-07T00:27:34;2.97;;;2.20;;
8895;SDS011;4484;48.928;10.066;2023-05-07T00:30:00;1.93;;;1.60;;
8895;SDS011;4484;48.928;10.066;2023-05-07T00:32:27;1.97;;;1.70;;
8895;SDS011;4484;48.928;10.066;2023-05-07T00:34:54;2.47;;;1.90;;
8895;SDS011;4484;48.928;10.066;2023-05-07T00:37:21;2.23;;;2.03;;
8895;SDS011;4484;48.928;10.066;2023-05-07T00:39:49;3.00;;;1.97;;
8895;SDS011;4484;48.928;10.066;2023-05-07T00:42:17;2.10;;;1.90;;
8895;SDS011;4484;48.928;10.066;2023-05-07T00:44:44;4.53;;;2.53;;
8895;SDS011;4484;48.928;10.066;2023-05-07T00:47:11;2.53;;;1.97;;
8895;SDS011;4484;48.928;10.066;2023-05-07T00:49:41;2.40;;;2.20;;
8895;SDS011;4484;48.928;10.066;2023-05-07T00:52:09;4.20;;;2.27;;
8895;SDS011;4484;48.928;10.066;2023-05-07T00:54:40;2.87;;;1.90;;
8895;SDS011;4484;48.928;10.066;2023-05-07T00:57:08;2.93;;;1.83;;
8895;SDS011;4484;48.928;10.066;2023-05-07T00:59:36;2.93;;;2.10;;
8895;SDS011;4484;48.928;10.066;2023-05-07T01:02:03;4.23;;;2.00;;
8895;SDS011;4484;48.928;10.066;2023-05-07T01:04:30;2.87;;;2.20;;
8895;SDS011;4484;48.928;10.066;2023-05-07T01:06:58;2.50;;;2.30;;
8895;SDS011;4484;48.928;10.066;2023-05-07T01:09:27;2.10;;;1.90;;
8895;SDS011;4484;48.928;10.066;2023-05-07T01:11:55;2.17;;;1.97;;
8895;SDS011;4484;48.928;10.066;2023-05-07T01:14:23;2.77;;;1.97;;
8895;SDS011;4484;48.928;10.066;2023-05-07T01:16:52;2.03;;;1.83;;
8895;SDS011;4484;48.928;10.066;2023-05-07T01:19:21;2.67;;;2.23;;
8895;SDS011;4484;48.928;10.066;2023-05-07T01:21:48;4.03;;;2.20;;
8895;SDS011;4484;48.928;10.066;2023-05-07T01:24:19;4.83;;;2.03;;
8895;SDS011;4484;48.928;10.066;2023-05-07T01:26:46;2.50;;;2.30;;
8895;SDS011;4484;48.928;10.066;2023-05-07T01:29:15;2.07;;;1.83;;
8895;SDS011;4484;48.928;10.066;2023-05-07T01:31:43;2.60;;;2.40;;
8895;SDS011;4484;48.928;10.066;2023-05-07T01:34:11;2.63;;;2.43;;
8895;SDS011;4484;48.928;10.066;2023-05-07T01:36:39;2.80;;;2.13;;
8895;SDS011;4484;48.928;10.066;2023-05-07T01:39:08;2.67;;;1.90;;
8895;SDS011;4484;48.928;10.066;2023-05-07T01:41:35;2.47;;;1.90;;
8895;SDS011;4484;48.928;10.066;2023-05-07T01:44:03;2.07;;;1.83;;
8895;SDS011;4484;48.928;10.066;2023-05-07T01:46:31;1.97;;;1.70;;
8895;SDS011;4484;48.928;10.066;2023-05-07T01:48:59;2.00;;;1.70;;
8895;SDS011;4484;48.928;10.066;2023-05-07T01:51:26;2.20;;;1.70;;
8895;SDS011;4484;48.928;10.066;2023-05-07T01:53:54;2.57;;;2.00;;
8895;SDS011;4484;48.928;10.066;2023-05-07T01:56:21;4.77;;;2.30;;
8895;SDS011;4484;48.928;10.066;2023-05-07T01:58:48;2.90;;;2.10;;
8895;SDS011;4484;48.928;10.066;2023-05-07T02:01:17;4.80;;;2.80;;
8895;SDS011;4484;48.928;10.066;2023-05-07T02:03:44;2.80;;;2.60;;
8895;SDS011;4484;48.928;10.066;2023-05-07T02:06:19;3.07;;;2.53;;
8895;SDS011;4484;48.928;10.066;2023-05-07T02:08:46;2.67;;;2.33;;
8895;SDS011;4484;48.928;10.066;2023-05-07T02:11:14;2.77;;;2.37;;
8895;SDS011;4484;48.928;10.066;2023-05-07T02:13:41;3.43;;;2.77;;
8895;SDS011;4484;48.928;10.066;2023-05-07T02:16:09;3.03;;;2.73;;
8895;SDS011;4484;48.928;10.066;2023-05-07T02:18:37;2.60;;;1.90;;
8895;SDS011;4484;48.928;10.066;2023-05-07T02:21:04;3.10;;;2.40;;
8895;SDS011;4484;48.928;10.066;2023-05-07T02:23:31;2.20;;;2.00;;
8895;SDS011;4484;48.928;10.066;2023-05-07T02:25:58;2.60;;;2.20;;
8895;SDS011;4484;48.928;10.066;2023-05-07T02:28:25;1.93;;;1.83;;
8895;SDS011;4484;48.928;10.066;2023-05-07T02:30:59;3.83;;;3.10;;
8895;SDS011;4484;48.928;10.066;2023-05-07T02:33:28;3.20;;;2.90;;
8895;SDS011;4484;48.928;10.066;2023-05-07T02:35:55;2.60;;;2.33;;
8895;SDS011;4484;48.928;10.066;2023-05-07T02:38:22;4.03;;;3.00;;
8895;SDS011;4484;48.928;10.066;2023-05-07T02:40:50;3.43;;;2.57;;
8895;SDS011;4484;48.928;10.066;2023-05-07T02:43:16;4.47;;;3.20;;
8895;SDS011;4484;48.928;10.066;2023-05-07T02:45:46;5.63;;;2.70;;
8895;SDS011;4484;48.928;10.066;2023-05-07T02:48:14;2.70;;;2.50;;
8895;SDS011;4484;48.928;10.066;2023-05-07T02:50:41;2.60;;;2.40;;
8895;SDS011;4484;48.928;10.066;2023-05-07T02:53:09;2.43;;;2.23;;
8895;SDS011;4484;48.928;10.066;2023-05-07T02:55:36;2.37;;;2.03;;
8895;SDS011;4484;48.928;10.066;2023-05-07T02:58:02;2.30;;;2.10;;
8895;SDS011;4484;48.928;10.066;2023-05-07T03:00:32;1.97;;;1.73;;
8895;SDS011;4484;48.928;10.066;2023-05-07T03:03:19;2.27;;;1.87;;
8895;SDS011;4484;48.928;10.066;2023-05-07T03:05:46;2.20;;;2.00;;
8895;SDS011;4484;48.928;10.066;2023-05-07T03:08:13;2.97;;;2.47;;
8895;SDS011;4484;48.928;10.066;2023-05-07T03:10:40;2.30;;;2.10;;
8895;SDS011;4484;48.928;10.066;2023-05-07T03:13:07;3.00;;;2.13;;
8895;SDS011;4484;48.928;10.066;2023-05-07T03:15:33;3.83;;;2.70;;
8895;SDS011;4484;48.928;10.066;2023-05-07T03:18:00;2.77;;;2.17;;
8895;SDS011;4484;48.928;10.066;2023-05-07T03:20:27;4.00;;;2.73;;
8895;SDS011;4484;48.928;10.066;2023-05-07T03:22:55;2.60;;;2.30;;
8895;SDS011;4484;48.928;10.066;2023-05-07T03:25:21;3.00;;;2.67;;
8895;SDS011;4484;48.928;10.066;2023-05-07T03:27:48;2.83;;;2.47;;
8895;SDS011;4484;48.928;10.066;2023-05-07T03:30:18;2.57;;;2.20;;
8895;SDS011;4484;48.928;10.066;2023-05-07T03:32:46;2.17;;;1.97;;
8895;SDS011;4484;48.928;10.066;2023-05-07T03:35:13;2.87;;;2.20;;
8895;SDS011;4484;48.928;10.066;2023-05-07T03:37:40;2.37;;;2.17;;
8895;SDS011;4484;48.928;10.066;2023-05-07T03:40:08;3.53;;;2.37;;
8895;SDS011;4484;48.928;10.066;2023-05-07T03:42:44;3.80;;;3.07;;
8895;SDS011;4484;48.928;10.066;2023-05-07T03:45:12;3.40;;;3.10;;
8895;SDS011;4484;48.928;10.066;2023-05-07T03:47:43;3.10;;;2.80;;
8895;SDS011;4484;48.928;10.066;2023-05-07T03:50:15;4.30;;;2.60;;
8895;SDS011;4484;48.928;10.066;2023-05-07T03:52:41;2.70;;;2.50;;
8895;SDS011;4484;48.928;10.066;2023-05-07T03:55:09;3.17;;;2.87;;
8895;SDS011;4484;48.928;10.066;2023-05-07T03:57:38;3.10;;;2.80;;
8895;SDS011;4484;48.928;10.066;2023-05-07T04:00:05;2.80;;;2.50;;
8895;SDS011;4484;48.928;10.066;2023-05-07T04:02:45;3.17;;;2.50;;
8895;SDS011;4484;48.928;10.066;2023-05-07T04:05:15;2.90;;;2.57;;
8895;SDS011;4484;48.928;10.066;2023-05-07T04:07:45;4.77;;;3.37;;
8895;SDS011;4484;48.928;10.066;2023-05-07T04:10:15;3.90;;;3.13;;
8895;SDS011;4484;48.928;10.066;2023-05-07T04:12:45;4.70;;;2.40;;
8895;SDS011;4484;48.928;10.066;2023-05-07T04:15:16;4.80;;;3.57;;
8895;SDS011;4484;48.928;10.066;2023-05-07T04:17:43;3.50;;;2.87;;
8895;SDS011;4484;48.928;10.066;2023-05-07T04:20:14;3.40;;;3.10;;
8895;SDS011;4484;48.928;10.066;2023-05-07T04:22:44;5.10;;;3.20;;
8895;SDS011;4484;48.928;10.066;2023-05-07T04:25:11;7.63;;;3.70;;
8895;SDS011;4484;48.928;10.066;2023-05-07T04:27:38;4.20;;;3.50;;
8895;SDS011;4484;48.928;10.066;2023-05-07T04:30:05;4.27;;;3.67;;
8895;SDS011;4484;48.928;10.066;2023-05-07T04:32:36;5.00;;;3.77;;
8895;SDS011;4484;48.928;10.066;2023-05-07T04:35:04;5.50;;;3.37;;
8895;SDS011;4484;48.928;10.066;2023-05-07T04:37:34;5.80;;;3.70;;
8895;SDS011;4484;48.928;10.066;2023-05-07T04:40:01;5.17;;;3.40;;
8895;SDS011;4484;48.928;10.066;2023-05-07T04:42:29;6.93;;;4.33;;
8895;SDS011;4484;48.928;10.066;2023-05-07T04:44:56;6.13;;;3.37;;
8895;SDS011;4484;48.928;10.066;2023-05-07T04:47:23;3.97;;;3.40;;
8895;SDS011;4484;48.928;10.066;2023-05-07T04:49:50;3.17;;;2.83;;
8895;SDS011;4484;48.928;10.066;2023-05-07T04:52:17;3.37;;;2.90;;
8895;SDS011;4484;48.928;10.066;2023-05-07T04:54:44;2.77;;;2.43;;
8895;SDS011;4484;48.928;10.066;2023-05-07T04:57:11;2.40;;;2.20;;
8895;SDS011;4484;48.928;10.066;2023-05-07T04:59:38;3.83;;;3.00;;
8895;SDS011;4484;48.928;10.066;2023-05-07T05:02:05;2.70;;;2.50;;
8895;SDS011;4484;48.928;10.066;2023-05-07T05:04:32;2.70;;;2.50;;
8895;SDS011;4484;48.928;10.066;2023-05-07T05:06:59;4.57;;;2.60;;
8895;SDS011;4484;48.928;10.066;2023-05-07T05:09:27;2.90;;;2.60;;
8895;SDS011;4484;48.928;10.066;2023-05-07T05:11:54;2.90;;;2.53;;
8895;SDS011;4484;48.928;10.066;2023-05-07T05:14:21;3.30;;;3.00;;
8895;SDS011;4484;48.928;10.066;2023-05-07T05:16:49;3.67;;;2.80;;
8895;SDS011;4484;48.928;10.066;2023-05-07T05:19:16;6.23;;;3.77;;
8895;SDS011;4484;48.928;10.066;2023-05-07T05:21:43;4.97;;;3.57;;
8895;SDS011;4484;48.928;10.066;2023-05-07T05:24:11;4.90;;;3.17;;
8895;SDS011;4484;48.928;10.066;2023-05-07T05:26:38;4.10;;;3.37;;
8895;SDS011;4484;48.928;10.066;2023-05-07T05:29:06;5.37;;;3.83;;
8895;SDS011;4484;48.928;10.066;2023-05-07T05:31:35;4.30;;;3.10;;
8895;SDS011;4484;48.928;10.066;2023-05-07T05:34:02;3.27;;;2.97;;
8895;SDS011;4484;48.928;10.066;2023-05-07T05:36:30;4.63;;;3.20;;
8895;SDS011;4484;48.928;10.066;2023-05-07T05:38:57;3.00;;;2.70;;
8895;SDS011;4484;48.928;10.066;2023-05-07T05:41:24;4.27;;;2.73;;
8895;SDS011;4484;48.928;10.066;2023-05-07T05:43:51;4.47;;;2.90;;
8895;SDS011;4484;48.928;10.066;2023-05-07T05:46:18;3.10;;;2.80;;
8895;SDS011;4484;48.928;10.066;2023-05-07T05:48:48;2.90;;;2.40;;
8895;SDS011;4484;48.928;10.066;2023-05-07T05:51:15;2.57;;;2.30;;
8895;SDS011;4484;48.928;10.066;2023-05-07T05:53:42;2.97;;;2.30;;
8895;SDS011;4484;48.928;10.066;2023-05-07T05:56:09;2.23;;;2.03;;
8895;SDS011;4484;48.928;10.066;2023-05-07T05:58:37;2.07;;;1.87;;
8895;SDS011;4484;48.928;10.066;2023-05-07T06:01:06;2.47;;;2.10;;
8895;SDS011;4484;48.928;10.066;2023-05-07T06:03:35;2.37;;;2.17;;
8895;SDS011;4484;48.928;10.066;2023-05-07T06:06:07;3.10;;;2.53;;
8895;SDS011;4484;48.928;10.066;2023-05-07T06:08:34;2.43;;;2.17;;
8895;SDS011;4484;48.928;10.066;2023-05-07T06:11:02;2.77;;;2.57;;
8895;SDS011;4484;48.928;10.066;2023-05-07T06:13:33;3.30;;;2.90;;
8895;SDS011;4484;48.928;10.066;2023-05-07T06:16:00;5.50;;;3.00;;
8895;SDS011;4484;48.928;10.066;2023-05-07T06:18:26;3.20;;;2.87;;
8895;SDS011;4484;48.928;10.066;2023-05-07T06:20:53;3.50;;;3.20;;
8895;SDS011;4484;48.928;10.066;2023-05-07T06:23:24;4.87;;;3.77;;
8895;SDS011;4484;48.928;10.066;2023-05-07T06:25:52;4.23;;;3.47;;
8895;SDS011;4484;48.928;10.066;2023-05-07T06:28:22;5.23;;;3.17;;
8895;SDS011;4484;48.928;10.066;2023-05-07T06:30:50;4.20;;;3.27;;
8895;SDS011;4484;48.928;10.066;2023-05-07T06:33:17;6.13;;;3.00;;
8895;SDS011;4484;48.928;10.066;2023-05-07T06:35:45;3.23;;;2.63;;
8895;SDS011;4484;48.928;10.066;2023-05-07T06:38:12;6.00;;;2.90;;
8895;SDS011;4484;48.928;10.066;2023-05-07T06:40:40;3.97;;;2.57;;
8895;SDS011;4484;48.928;10.066;2023-05-07T06:43:07;4.13;;;2.63;;
8895;SDS011;4484;48.928;10.066;2023-05-07T06:45:46;6.73;;;2.80;;
8895;SDS011;4484;48.928;10.066;2023-05-07T06:48:13;5.60;;;2.60;;
8895;SDS011;4484;48.928;10.066;2023-05-07T06:50:50;3.87;;;2.40;;
8895;SDS011;4484;48.928;10.066;2023-05-07T06:53:17;4.20;;;2.60;;
8895;SDS011;4484;48.928;10.066;2023-05-07T06:55:45;2.70;;;2.33;;
8895;SDS011;4484;48.928;10.066;2023-05-07T06:58:13;3.30;;;2.47;;
8895;SDS011;4484;48.928;10.066;2023-05-07T07:00:40;3.13;;;2.33;;
8895;SDS011;4484;48.928;10.066;2023-05-07T07:03:07;2.93;;;2.30;;
8895;SDS011;4484;48.928;10.066;2023-05-07T07:05:34;2.00;;;1.80;;
8895;SDS011;4484;48.928;10.066;2023-05-07T07:08:02;4.17;;;2.20;;
8895;SDS011;4484;48.928;10.066;2023-05-07T07:10:29;2.30;;;2.10;;
8895;SDS011;4484;48.928;10.066;2023-05-07T07:12:56;2.50;;;2.20;;
8895;SDS011;4484;48.928;10.066;2023-05-07T07:15:23;2.93;;;2.23;;
8895;SDS011;4484;48.928;10.066;2023-05-07T07:17:52;3.77;;;2.67;;
8895;SDS011;4484;48.928;10.066;2023-05-07T07:20:21;4.00;;;2.83;;
8895;SDS011;4484;48.928;10.066;2023-05-07T07:22:48;2.73;;;2.53;;
8895;SDS011;4484;48.928;10.066;2023-05-07T07:25:16;5.60;;;2.33;;
8895;SDS011;4484;48.928;10.066;2023-05-07T07:27:43;4.03;;;2.37;;
8895;SDS011;4484;48.928;10.066;2023-05-07T07:30:11;2.70;;;2.40;;
8895;SDS011;4484;48.928;10.066;2023-05-07T07:32:40;2.10;;;1.90;;
8895;SDS011;4484;48.928;10.066;2023-05-07T07:35:07;2.43;;;1.93;;
8895;SDS011;4484;48.928;10.066;2023-05-07T07:37:35;4.70;;;2.37;;
8895;SDS011;4484;48.928;10.066;2023-05-07T07:40:02;2.50;;;2.20;;
8895;SDS011;4484;48.928;10.066;2023-05-07T07:42:31;2.63;;;2.30;;
8895;SDS011;4484;48.928;10.066;2023-05-07T07:44:59;2.93;;;2.60;;
8895;SDS011;4484;48.928;10.066;2023-05-07T07:47:30;3.70;;;2.40;;
8895;SDS011;4484;48.928;10.066;2023-05-07T07:49:57;3.17;;;2.23;;
8895;SDS011;4484;48.928;10.066;2023-05-07T07:52:24;3.47;;;2.30;;
8895;SDS011;4484;48.928;10.066;2023-05-07T07:54:51;2.53;;;2.03;;
8895;SDS011;4484;48.928;10.066;2023-05-07T07:57:18;2.25;;;1.95;;
8895;SDS011;4484;48.928;10.066;2023-05-07T07:59:46;2.10;;;1.90;;
8895;SDS011;4484;48.928;10.066;2023-05-07T08:02:14;3.63;;;2.00;;
8895;SDS011;4484;48.928;10.066;2023-05-07T08:04:41;2.22;;;2.03;;
8895;SDS011;4484;48.928;10.066;2023-05-07T08:07:10;2.30;;;1.75;;
8895;SDS011;4484;48.928;10.066;2023-05-07T08:09:40;3.17;;;2.20;;
8895;SDS011;4484;48.928;10.066;2023-05-07T08:12:08;2.00;;;1.77;;
8895;SDS011;4484;48.928;10.066;2023-05-07T08:14:36;2.13;;;1.92;;
8895;SDS011;4484;48.928;10.066;2023-05-07T08:17:05;2.00;;;1.80;;
8895;SDS011;4484;48.928;10.066;2023-05-07T08:19:33;2.88;;;1.67;;
8895;SDS011;4484;48.928;10.066;2023-05-07T08:22:01;1.52;;;1.42;;
8895;SDS011;4484;48.928;10.066;2023-05-07T08:24:29;3.10;;;1.42;;
8895;SDS011;4484;48.928;10.066;2023-05-07T08:26:56;2.45;;;1.67;;
8895;SDS011;4484;48.928;10.066;2023-05-07T08:29:23;4.60;;;1.98;;
8895;SDS011;4484;48.928;10.066;2023-05-07T08:31:50;2.38;;;2.08;;
8895;SDS011;4484;48.928;10.066;2023-05-07T08:34:17;3.35;;;1.55;;
8895;SDS011;4484;48.928;10.066;2023-05-07T08:36:46;2.40;;;1.70;;
8895;SDS011;4484;48.928;10.066;2023-05-07T08:39:16;2.65;;;1.50;;
8895;SDS011;4484;48.928;10.066;2023-05-07T08:41:46;4.05;;;1.70;;
8895;SDS011;4484;48.928;10.066;2023-05-07T08:44:15;2.03;;;1.70;;
8895;SDS011;4484;48.928;10.066;2023-05-07T08:46:45;4.40;;;1.52;;
8895;SDS011;4484;48.928;10.066;2023-05-07T08:49:15;3.58;;;1.50;;
8895;SDS011;4484;48.928;10.066;2023-05-07T08:51:43;1.90;;;1.30;;
8895;SDS011;4484;48.928;10.066;2023-05-07T08:54:12;5.60;;;2.00;;
8895;SDS011;4484;48.928;10.066;2023-05-07T08:56:42;1.88;;;1.45;;
8895;SDS011;4484;48.928;10.066;2023-05-07T08:59:09;2.78;;;1.48;;
8895;SDS011;4484;48.928;10.066;2023-05-07T09:01:36;1.90;;;1.27;;
8895;SDS011;4484;48.928;10.066;2023-05-07T09:04:04;2.35;;;1.30;;
8895;SDS011;4484;48.928;10.066;2023-05-07T09:06:33;2.25;;;1.52;;
8895;SDS011;4484;48.928;10.066;2023-05-07T09:09:01;2.95;;;1.63;;
8895;SDS011;4484;48.928;10.066;2023-05-07T09:11:29;2.60;;;1.60;;
8895;SDS011;4484;48.928;10.066;2023-05-07T09:13:58;1.13;;;1.02;;
8895;SDS011;4484;48.928;10.066;2023-05-07T09:16:32;4.40;;;1.40;;
8895;SDS011;4484;48.928;10.066;2023-05-07T09:18:59;1.77;;;1.67;;
8895;SDS011;4484;48.928;10.066;2023-05-07T09:21:27;1.67;;;1.40;;
8895;SDS011;4484;48.928;10.066;2023-05-07T09:23:56;1.50;;;1.40;;
8895;SDS011;4484;48.928;10.066;2023-05-07T09:26:31;1.42;;;1.33;;
8895;SDS011;4484;48.928;10.066;2023-05-07T09:29:01;1.42;;;1.20;;
8895;SDS011;4484;48.928;10.066;2023-05-07T09:31:28;2.50;;;1.40;;
8895;SDS011;4484;48.928;10.066;2023-05-07T09:33:55;4.43;;;1.25;;
8895;SDS011;4484;48.928;10.066;2023-05-07T09:36:25;1.05;;;0.98;;
8895;SDS011;4484;48.928;10.066;2023-05-07T09:38:53;1.00;;;1.00;;
8895;SDS011;4484;48.928;10.066;2023-05-07T09:41:20;2.30;;;1.42;;
8895;SDS011;4484;48.928;10.066;2023-05-07T09:43:58;1.60;;;1.00;;
8895;SDS011;4484;48.928;10.066;2023-05-07T09:46:32;1.13;;;1.00;;
8895;SDS011;4484;48.928;10.066;2023-05-07T09:49:07;2.67;;;0.90;;
8895;SDS011;4484;48.928;10.066;2023-05-07T09:51:50;2.60;;;1.00;;
8895;SDS011;4484;48.928;10.066;2023-05-07T09:54:22;1.40;;;1.30;;
8895;SDS011;4484;48.928;10.066;2023-05-07T09:56:52;1.80;;;1.10;;
8895;SDS011;4484;48.928;10.066;2023-05-07T09:59:22;1.15;;;0.85;;
8895;SDS011;4484;48.928;10.066;2023-05-07T10:01:50;1.45;;;1.02;;
8895;SDS011;4484;48.928;10.066;2023-05-07T10:04:22;1.33;;;1.10;;
8895;SDS011;4484;48.928;10.066;2023-05-07T10:06:52;1.40;;;1.30;;
8895;SDS011;4484;48.928;10.066;2023-05-07T10:09:20;1.98;;;1.42;;
8895;SDS011;4484;48.928;10.066;2023-05-07T10:11:50;4.57;;;1.55;;
8895;SDS011;4484;48.928;10.066;2023-05-07T10:14:20;1.73;;;1.60;;
8895;SDS011;4484;48.928;10.066;2023-05-07T10:16:48;1.55;;;1.45;;
8895;SDS011;4484;48.928;10.066;2023-05-07T10:19:16;1.40;;;1.10;;
8895;SDS011;4484;48.928;10.066;2023-05-07T10:21:56;1.13;;;1.02;;
8895;SDS011;4484;48.928;10.066;2023-05-07T10:24:34;2.25;;;1.40;;
8895;SDS011;4484;48.928;10.066;2023-05-07T10:27:10;3.28;;;1.25;;
8895;SDS011;4484;48.928;10.066;2023-05-07T10:32:30;1.35;;;1.25;;
8895;SDS011;4484;48.928;10.066;2023-05-07T10:35:19;1.50;;;1.40;;
8895;SDS011;4484;48.928;10.066;2023-05-07T10:37:49;1.92;;;1.10;;
8895;SDS011;4484;48.928;10.066;2023-05-07T10:40:17;1.25;;;1.00;;
8895;SDS011;4484;48.928;10.066;2023-05-07T10:42:55;1.15;;;1.05;;
8895;SDS011;4484;48.928;10.066;2023-05-07T10:45:30;1.42;;;1.30;;
8895;SDS011;4484;48.928;10.066;2023-05-07T10:48:12;2.90;;;1.50;;
8895;SDS011;4484;48.928;10.066;2023-05-07T10:53:47;1.60;;;1.15;;
8895;SDS011;4484;48.928;10.066;2023-05-07T10:58:54;2.90;;;1.33;;
8895;SDS011;4484;48.928;10.066;2023-05-07T11:01:49;1.75;;;1.17;;
8895;SDS011;4484;48.928;10.066;2023-05-07T11:04:18;1.13;;;1.05;;
8895;SDS011;4484;48.928;10.066;2023-05-07T11:07:26;1.75;;;1.10;;
8895;SDS011;4484;48.928;10.066;2023-05-07T11:10:12;1.63;;;1.25;;
8895;SDS011;4484;48.928;10.066;2023-05-07T11:12:57;2.08;;;1.23;;
8895;SDS011;4484;48.928;10.066;2023-05-07T11:15:47;2.33;;;1.60;;
8895;SDS011;4484;48.928;10.066;2023-05-07T11:19:09;2.88;;;1.42;;
8895;SDS011;4484;48.928;10.066;2023-05-07T11:21:38;1.77;;;1.10;;
8895;SDS011;4484;48.928;10.066;2023-05-07T11:24:33;1.98;;;1.10;;
8895;SDS011;4484;48.928;10.066;2023-05-07T11:27:07;1.25;;;1.10;;
8895;SDS011;4484;48.928;10.066;2023-05-07T11:29:35;4.68;;;1.30;;
8895;SDS011;4484;48.928;10.066;2023-05-07T11:32:06;1.40;;;1.10;;
8895;SDS011;4484;48.928;10.066;2023-05-07T11:34:39;3.40;;;1.27;;
8895;SDS011;4484;48.928;10.066;2023-05-07T11:37:07;1.73;;;1.10;;
8895;SDS011;4484;48.928;10.066;2023-05-07T11:39:48;1.35;;;1.23;;
8895;SDS011;4484;48.928;10.066;2023-05-07T11:42:25;1.30;;;1.10;;
8895;SDS011;4484;48.928;10.066;2023-05-07T11:44:53;2.15;;;1.27;;
8895;SDS011;4484;48.928;10.066;2023-05-07T11:47:20;2.20;;;1.30;;
8895;SDS011;4484;48.928;10.066;2023-05-07T11:49:56;2.63;;;0.95;;
8895;SDS011;4484;48.928;10.066;2023-05-07T11:52:28;1.90;;;0.93;;
8895;SDS011;4484;48.928;10.066;2023-05-07T11:54:55;2.10;;;1.15;;
8895;SDS011;4484;48.928;10.066;2023-05-07T11:57:24;2.28;;;1.17;;
8895;SDS011;4484;48.928;10.066;2023-05-07T11:59:58;1.50;;;1.10;;
8895;SDS011;4484;48.928;10.066;2023-05-07T12:02:37;1.63;;;1.33;;
8895;SDS011;4484;48.928;10.066;2023-05-07T12:05:05;1.38;;;1.10;;
8895;SDS011;4484;48.928;10.066;2023-05-07T12:07:33;1.10;;;1.00;;
8895;SDS011;4484;48.928;10.066;2023-05-07T12:10:05;2.33;;;1.30;;
8895;SDS011;4484;48.928;10.066;2023-05-07T12:12:45;1.23;;;1.13;;
8895;SDS011;4484;48.928;10.066;2023-05-07T12:15:15;4.88;;;0.98;;
8895;SDS011;4484;48.928;10.066;2023-05-07T12:17:43;1.40;;;1.20;;
8895;SDS011;4484;48.928;10.066;2023-05-07T12:20:10;1.88;;;1.05;;
8895;SDS011;4484;48.928;10.066;2023-05-07T12:22:38;5.00;;;1.30;;
8895;SDS011;4484;48.928;10.066;2023-05-07T12:25:05;1.48;;;0.88;;
8895;SDS011;4484;48.928;10.066;2023-05-07T12:27:36;1.23;;;1.02;;
8895;SDS011;4484;48.928;10.066;2023-05-07T12:30:03;1.65;;;1.25;;
8895;SDS011;4484;48.928;10.066;2023-05-07T12:32:31;4.57;;;1.33;;
8895;SDS011;4484;48.928;10.066;2023-05-07T12:35:02;1.88;;;1.27;;
8895;SDS011;4484;48.928;10.066;2023-05-07T12:37:32;2.67;;;1.42;;
8895;SDS011;4484;48.928;10.066;2023-05-07T12:40:05;2.85;;;1.13;;
8895;SDS011;4484;48.928;10.066;2023-05-07T12:42:37;3.85;;;1.10;;
8895;SDS011;4484;48.928;10.066;2023-05-07T12:45:12;2.55;;;1.02;;
8895;SDS011;4484;48.928;10.066;2023-05-07T12:47:46;2.42;;;1.20;;
8895;SDS011;4484;48.928;10.066;2023-05-07T12:50:14;1.45;;;1.20;;
8895;SDS011;4484;48.928;10.066;2023-05-07T12:52:42;1.77;;;1.00;;
8895;SDS011;4484;48.928;10.066;2023-05-07T12:55:12;2.03;;;1.33;;
8895;SDS011;4484;48.928;10.066;2023-05-07T12:57:42;1.85;;;0.88;;
8895;SDS011;4484;48.928;10.066;2023-05-07T13:00:13;1.40;;;0.98;;
8895;SDS011;4484;48.928;10.066;2023-05-07T13:02:41;1.33;;;1.10;;
8895;SDS011;4484;48.928;10.066;2023-05-07T13:05:11;2.17;;;1.05;;
8895;SDS011;4484;48.928;10.066;2023-05-07T13:07:38;2.83;;;1.25;;
8895;SDS011;4484;48.928;10.066;2023-05-07T13:10:07;2.10;;;1.23;;
8895;SDS011;4484;48.928;10.066;2023-05-07T13:12:34;1.33;;;0.88;;
8895;SDS011;4484;48.928;10.066;2023-05-07T13:15:01;0.90;;;0.80;;
8895;SDS011;4484;48.928;10.066;2023-05-07T13:17:28;1.20;;;1.00;;
8895;SDS011;4484;48.928;10.066;2023-05-07T13:19:57;1.45;;;1.23;;
8895;SDS011;4484;48.928;10.066;2023-05-07T13:22:24;1.55;;;0.88;;
8895;SDS011;4484;48.928;10.066;2023-05-07T13:24:50;2.08;;;1.10;;
8895;SDS011;4484;48.928;10.066;2023-05-07T13:27:17;1.08;;;0.98;;
8895;SDS011;4484;48.928;10.066;2023-05-07T13:29:45;1.98;;;1.00;;
8895;SDS011;4484;48.928;10.066;2023-05-07T13:32:12;2.97;;;1.20;;
8895;SDS011;4484;48.928;10.066;2023-05-07T13:34:39;1.98;;;1.00;;
8895;SDS011;4484;48.928;10.066;2023-05-07T13:37:06;3.97;;;1.55;;
8895;SDS011;4484;48.928;10.066;2023-05-07T13:39:36;1.23;;;1.13;;
8895;SDS011;4484;48.928;10.066;2023-05-07T13:42:03;1.20;;;1.10;;
8895;SDS011;4484;48.928;10.066;2023-05-07T13:44:30;1.88;;;1.30;;
8895;SDS011;4484;48.928;10.066;2023-05-07T13:46:57;1.45;;;1.10;;
8895;SDS011;4484;48.928;10.066;2023-05-07T13:49:24;1.00;;;0.90;;
8895;SDS011;4484;48.928;10.066;2023-05-07T13:51:51;1.73;;;0.90;;
8895;SDS011;4484;48.928;10.066;2023-05-07T13:54:18;1.25;;;0.93;;
8895;SDS011;4484;48.928;10.066;2023-05-07T13:56:44;2.53;;;0.90;;
8895;SDS011;4484;48.928;10.066;2023-05-07T13:59:11;2.95;;;0.98;;
8895;SDS011;4484;48.928;10.066;2023-05-07T14:01:40;1.40;;;0.85;;
8895;SDS011;4484;48.928;10.066;2023-05-07T14:04:07;5.38;;;1.10;;
8895;SDS011;4484;48.928;10.066;2023-05-07T14:06:34;1.20;;;1.10;;
8895;SDS011;4484;48.928;10.066;2023-05-07T14:09:01;0.95;;;0.85;;
8895;SDS011;4484;48.928;10.066;2023-05-07T14:11:27;1.80;;;0.90;;
8895;SDS011;4484;48.928;10.066;2023-05-07T14:13:54;1.83;;;1.10;;
8895;SDS011;4484;48.928;10.066;2023-05-07T14:16:23;1.67;;;1.00;;
8895;SDS011;4484;48.928;10.066;2023-05-07T14:18:50;1.15;;;1.00;;
8895;SDS011;4484;48.928;10.066;2023-05-07T14:21:16;1.42;;;1.02;;
8895;SDS011;4484;48.928;10.066;2023-05-07T14:23:43;1.40;;;1.00;;
8895;SDS011;4484;48.928;10.066;2023-05-07T14:26:10;1.40;;;0.98;;
8895;SDS011;4484;48.928;10.066;2023-05-07T14:28:37;1.65;;;1.20;;
8895;SDS011;4484;48.928;10.066;2023-05-07T14:31:05;4.47;;;1.00;;
8895;SDS011;4484;48.928;10.066;2023-05-07T14:33:32;1.20;;;1.10;;
8895;SDS011;4484;48.928;10.066;2023-05-07T14:35:59;2.45;;;0.90;;
8895;SDS011;4484;48.928;10.066;2023-05-07T14:38:26;3.03;;;1.13;;
8895;SDS011;4484;48.928;10.066;2023-05-07T14:40:53;1.80;;;1.02;;
8895;SDS011;4484;48.928;10.066;2023-05-07T14:43:22;1.10;;;1.00;;
8895;SDS011;4484;48.928;10.066;2023-05-07T14:45:49;2.17;;;1.30;;
8895;SDS011;4484;48.928;10.066;2023-05-07T14:48:16;3.95;;;1.23;;
8895;SDS011;4484;48.928;10.066;2023-05-07T14:50:47;2.25;;;1.13;;
8895;SDS011;4484;48.928;10.066;2023-05-07T14:53:14;2.72;;;1.13;;
8895;SDS011;4484;48.928;10.066;2023-05-07T14:55:41;1.55;;;1.30;;
8895;SDS011;4484;48.928;10.066;2023-05-07T14:58:09;3.03;;;1.70;;
8895;SDS011;4484;48.928;10.066;2023-05-07T15:00:37;1.40;;;1.15;;
8895;SDS011;4484;48.928;10.066;2023-05-07T15:03:07;4.80;;;1.30;;
8895;SDS011;4484;48.928;10.066;2023-05-07T15:05:35;1.20;;;1.10;;
8895;SDS011;4484;48.928;10.066;2023-05-07T15:08:03;2.08;;;1.35;;
8895;SDS011;4484;48.928;10.066;2023-05-07T15:10:31;2.88;;;1.60;;
8895;SDS011;4484;48.928;10.066;2023-05-07T15:13:06;2.03;;;1.30;;
8895;SDS011;4484;48.928;10.066;2023-05-07T15:15:35;3.13;;;1.70;;
8895;SDS011;4484;48.928;10.066;2023-05-07T15:18:02;1.83;;;1.02;;
8895;SDS011;4484;48.928;10.066;2023-05-07T15:20:29;3.13;;;1.48;;